sensor_id;sensor_type;location;lat;lon;timestamp;temperature;humidity
23207;DHT22;11773;52.570;13.052;2022-12-11T00:00:11;1.60;99.90
23207;DHT22;11773;52.570;13.052;2022-12-11T00:02:42;1.40;99.90
23207;DHT22;11773;52.570;13.052;2022-12-11T00:05:11;1.50;99.90
23207;DHT22;11773;52.570;13.052;2022-12-11T00:07:41;1.50;99.90
23207;DHT22;11773;52.570;13.052;2022-12-11T00:10:10;1.50;99.90
23207;DHT22;11773;52.570;13.052;2022-12-11T00:12:40;1.60;99.90
23207;DHT22;11773;52.570;13.052;2022-12-11T00:15:09;1.60;99.90
23207;DHT22;11773;52.570;13.052;2022-12-11T00:17:40;1.60;99.90
23207;DHT22;11773;52.570;13.052;2022-12-11T00:20:09;1.40;99.90
23207;DHT22;11773;52.570;13.052;2022-12-11T00:22:39;1.50;99.90
23207;DHT22;11773;52.570;13.052;2022-12-11T00:25:08;1.60;99.90
23207;DHT22;11773;52.570;13.052;2022-12-11T00:27:38;1.70;99.90
23207;DHT22;11773;52.570;13.052;2022-12-11T00:30:08;1.60;99.90
23207;DHT22;11773;52.570;13.052;2022-12-11T00:32:38;1.60;99.90
23207;DHT22;11773;52.570;13.052;2022-12-11T00:35:08;1.60;99.90
23207;DHT22;11773;52.570;13.052;2022-12-11T00:37:38;1.60;99.90
23207;DHT22;11773;52.570;13.052;2022-12-11T00:40:08;1.70;99.90
23207;DHT22;11773;52.570;13.052;2022-12-11T00:42:38;1.50;99.90
23207;DHT22;11773;52.570;13.052;2022-12-11T00:45:07;1.60;99.90
23207;DHT22;11773;52.570;13.052;2022-12-11T00:47:38;1.60;99.90
23207;DHT22;11773;52.570;13.052;2022-12-11T00:50:08;1.60;99.90
23207;DHT22;11773;52.570;13.052;2022-12-11T00:52:38;1.70;99.90
23207;DHT22;11773;52.570;13.052;2022-12-11T00:55:08;1.50;99.90
23207;DHT22;11773;52.570;13.052;2022-12-11T00:57:38;1.60;99.90
23207;DHT22;11773;52.570;13.052;2022-12-11T01:00:08;1.70;99.90
23207;DHT22;11773;52.570;13.052;2022-12-11T01:02:39;1.60;99.90
23207;DHT22;11773;52.570;13.052;2022-12-11T01:05:10;1.60;99.90
23207;DHT22;11773;52.570;13.052;2022-12-11T01:07:40;1.70;99.90
23207;DHT22;11773;52.570;13.052;2022-12-11T01:10:12;1.60;99.90
23207;DHT22;11773;52.570;13.052;2022-12-11T01:12:56;1.60;99.90
23207;DHT22;11773;52.570;13.052;2022-12-11T01:15:33;1.60;99.90
23207;DHT22;11773;52.570;13.052;2022-12-11T01:18:06;1.60;99.90
23207;DHT22;11773;52.570;13.052;2022-12-11T01:20:37;1.60;99.90
23207;DHT22;11773;52.570;13.052;2022-12-11T01:23:11;1.60;99.90
23207;DHT22;11773;52.570;13.052;2022-12-11T01:25:41;1.50;99.90
23207;DHT22;11773;52.570;13.052;2022-12-11T01:28:11;1.60;99.90
23207;DHT22;11773;52.570;13.052;2022-12-11T01:30:41;1.50;99.90
23207;DHT22;11773;52.570;13.052;2022-12-11T01:33:11;1.30;99.90
23207;DHT22;11773;52.570;13.052;2022-12-11T01:35:40;1.30;99.90
23207;DHT22;11773;52.570;13.052;2022-12-11T01:38:10;1.50;99.90
23207;DHT22;11773;52.570;13.052;2022-12-11T01:40:45;1.60;99.90
23207;DHT22;11773;52.570;13.052;2022-12-11T01:43:18;1.50;99.90
23207;DHT22;11773;52.570;13.052;2022-12-11T01:45:48;1.60;99.90
23207;DHT22;11773;52.570;13.052;2022-12-11T01:48:24;1.60;99.90
23207;DHT22;11773;52.570;13.052;2022-12-11T01:51:00;1.50;99.90
23207;DHT22;11773;52.570;13.052;2022-12-11T01:53:34;1.50;99.90
23207;DHT22;11773;52.570;13.052;2022-12-11T01:56:07;1.50;99.90
23207;DHT22;11773;52.570;13.052;2022-12-11T01:58:43;1.20;99.90
23207;DHT22;11773;52.570;13.052;2022-12-11T02:01:24;1.30;99.90
23207;DHT22;11773;52.570;13.052;2022-12-11T02:03:55;1.50;99.90
23207;DHT22;11773;52.570;13.052;2022-12-11T02:06:39;1.40;99.90
23207;DHT22;11773;52.570;13.052;2022-12-11T02:09:14;1.60;99.90
23207;DHT22;11773;52.570;13.052;2022-12-11T02:17:57;1.40;99.90
23207;DHT22;11773;52.570;13.052;2022-12-11T02:20:35;1.50;99.90
23207;DHT22;11773;52.570;13.052;2022-12-11T02:29:00;1.50;99.90
23207;DHT22;11773;52.570;13.052;2022-12-11T02:31:40;1.40;99.90
23207;DHT22;11773;52.570;13.052;2022-12-11T02:34:23;1.40;99.90
23207;DHT22;11773;52.570;13.052;2022-12-11T02:36:57;1.50;99.90
23207;DHT22;11773;52.570;13.052;2022-12-11T02:39:28;1.50;99.90
23207;DHT22;11773;52.570;13.052;2022-12-11T02:42:03;1.50;99.90
23207;DHT22;11773;52.570;13.052;2022-12-11T02:44:34;1.50;99.90
23207;DHT22;11773;52.570;13.052;2022-12-11T02:47:09;1.50;99.90
23207;DHT22;11773;52.570;13.052;2022-12-11T02:49:39;1.50;99.90
23207;DHT22;11773;52.570;13.052;2022-12-11T02:52:13;1.60;99.90
23207;DHT22;11773;52.570;13.052;2022-12-11T02:54:47;1.60;99.90
23207;DHT22;11773;52.570;13.052;2022-12-11T02:57:24;1.60;99.90
23207;DHT22;11773;52.570;13.052;2022-12-11T02:59:58;1.50;99.90
23207;DHT22;11773;52.570;13.052;2022-12-11T03:02:28;1.50;99.90
23207;DHT22;11773;52.570;13.052;2022-12-11T03:04:58;1.50;99.90
23207;DHT22;11773;52.570;13.052;2022-12-11T03:07:31;1.40;99.90
23207;DHT22;11773;52.570;13.052;2022-12-11T03:10:04;1.40;99.90
23207;DHT22;11773;52.570;13.052;2022-12-11T03:12:37;1.50;99.90
23207;DHT22;11773;52.570;13.052;2022-12-11T03:15:12;1.60;99.90
23207;DHT22;11773;52.570;13.052;2022-12-11T03:18:08;1.70;99.90
23207;DHT22;11773;52.570;13.052;2022-12-11T03:20:42;1.70;99.90
23207;DHT22;11773;52.570;13.052;2022-12-11T03:23:32;1.60;99.90
23207;DHT22;11773;52.570;13.052;2022-12-11T03:26:05;1.70;99.90
23207;DHT22;11773;52.570;13.052;2022-12-11T03:28:44;1.40;99.90
23207;DHT22;11773;52.570;13.052;2022-12-11T03:31:27;1.50;99.90
23207;DHT22;11773;52.570;13.052;2022-12-11T03:33:59;1.30;99.90
23207;DHT22;11773;52.570;13.052;2022-12-11T03:36:33;1.40;99.90
23207;DHT22;11773;52.570;13.052;2022-12-11T03:39:09;1.30;99.90
23207;DHT22;11773;52.570;13.052;2022-12-11T03:41:54;1.30;99.90
23207;DHT22;11773;52.570;13.052;2022-12-11T03:44:26;1.40;99.90
23207;DHT22;11773;52.570;13.052;2022-12-11T03:46:59;1.40;99.90
23207;DHT22;11773;52.570;13.052;2022-12-11T03:49:34;1.50;99.90
23207;DHT22;11773;52.570;13.052;2022-12-11T03:52:06;1.60;99.90
23207;DHT22;11773;52.570;13.052;2022-12-11T03:54:40;1.60;99.90
23207;DHT22;11773;52.570;13.052;2022-12-11T03:57:15;1.40;99.90
23207;DHT22;11773;52.570;13.052;2022-12-11T03:59:48;1.50;99.90
23207;DHT22;11773;52.570;13.052;2022-12-11T04:02:18;1.50;99.90
23207;DHT22;11773;52.570;13.052;2022-12-11T04:04:47;1.50;99.90
23207;DHT22;11773;52.570;13.052;2022-12-11T04:07:17;1.60;99.90
23207;DHT22;11773;52.570;13.052;2022-12-11T04:09:46;1.60;99.90
23207;DHT22;11773;52.570;13.052;2022-12-11T04:12:15;1.50;99.90
23207;DHT22;11773;52.570;13.052;2022-12-11T04:14:45;1.60;99.90
23207;DHT22;11773;52.570;13.052;2022-12-11T04:17:35;1.60;99.90
23207;DHT22;11773;52.570;13.052;2022-12-11T04:20:22;1.60;99.90
23207;DHT22;11773;52.570;13.052;2022-12-11T04:23:15;1.60;99.90
23207;DHT22;11773;52.570;13.052;2022-12-11T04:26:09;1.60;99.90
23207;DHT22;11773;52.570;13.052;2022-12-11T04:28:45;1.70;99.90
23207;DHT22;11773;52.570;13.052;2022-12-11T04:31:20;1.60;99.90
23207;DHT22;11773;52.570;13.052;2022-12-11T04:33:51;1.60;99.90
23207;DHT22;11773;52.570;13.052;2022-12-11T04:36:20;1.60;99.90
23207;DHT22;11773;52.570;13.052;2022-12-11T04:38:50;1.60;99.90
23207;DHT22;11773;52.570;13.052;2022-12-11T04:41:19;1.60;99.90
23207;DHT22;11773;52.570;13.052;2022-12-11T04:43:49;1.60;99.90
23207;DHT22;11773;52.570;13.052;2022-12-11T04:46:20;1.70;99.90
23207;DHT22;11773;52.570;13.052;2022-12-11T04:48:52;1.70;99.90
23207;DHT22;11773;52.570;13.052;2022-12-11T04:51:23;1.70;99.90
23207;DHT22;11773;52.570;13.052;2022-12-11T04:53:54;1.70;99.90
23207;DHT22;11773;52.570;13.052;2022-12-11T04:56:23;1.70;99.90
23207;DHT22;11773;52.570;13.052;2022-12-11T04:58:53;1.60;99.90
23207;DHT22;11773;52.570;13.052;2022-12-11T05:01:22;1.60;99.90
23207;DHT22;11773;52.570;13.052;2022-12-11T05:03:52;1.50;99.90
23207;DHT22;11773;52.570;13.052;2022-12-11T05:06:21;1.60;99.90
23207;DHT22;11773;52.570;13.052;2022-12-11T05:08:51;1.60;99.90
23207;DHT22;11773;52.570;13.052;2022-12-11T05:11:20;1.70;99.90
23207;DHT22;11773;52.570;13.052;2022-12-11T05:13:51;1.60;99.90
23207;DHT22;11773;52.570;13.052;2022-12-11T05:16:20;1.60;99.90
23207;DHT22;11773;52.570;13.052;2022-12-11T05:18:50;1.70;99.90
23207;DHT22;11773;52.570;13.052;2022-12-11T05:21:19;1.60;99.90
23207;DHT22;11773;52.570;13.052;2022-12-11T05:23:49;1.60;99.90
23207;DHT22;11773;52.570;13.052;2022-12-11T05:26:19;1.50;99.90
23207;DHT22;11773;52.570;13.052;2022-12-11T05:28:52;1.50;99.90
23207;DHT22;11773;52.570;13.052;2022-12-11T05:31:25;1.40;99.90
23207;DHT22;11773;52.570;13.052;2022-12-11T05:33:55;1.30;99.90
23207;DHT22;11773;52.570;13.052;2022-12-11T05:36:35;1.40;99.90
23207;DHT22;11773;52.570;13.052;2022-12-11T05:39:01;1.40;99.90
23207;DHT22;11773;52.570;13.052;2022-12-11T05:41:32;1.40;99.90
23207;DHT22;11773;52.570;13.052;2022-12-11T05:44:01;1.50;99.90
23207;DHT22;11773;52.570;13.052;2022-12-11T05:46:31;1.50;99.90
23207;DHT22;11773;52.570;13.052;2022-12-11T05:49:01;1.30;99.90
23207;DHT22;11773;52.570;13.052;2022-12-11T05:51:30;1.30;99.90
23207;DHT22;11773;52.570;13.052;2022-12-11T05:54:01;1.40;99.90
23207;DHT22;11773;52.570;13.052;2022-12-11T05:56:33;1.40;99.90
23207;DHT22;11773;52.570;13.052;2022-12-11T05:59:04;1.40;99.90
23207;DHT22;11773;52.570;13.052;2022-12-11T06:01:41;1.20;99.90
23207;DHT22;11773;52.570;13.052;2022-12-11T06:04:10;1.20;99.90
23207;DHT22;11773;52.570;13.052;2022-12-11T06:06:40;0.90;99.90
23207;DHT22;11773;52.570;13.052;2022-12-11T06:09:14;0.80;99.90
23207;DHT22;11773;52.570;13.052;2022-12-11T06:11:44;1.10;99.90
23207;DHT22;11773;52.570;13.052;2022-12-11T06:14:14;1.20;99.90
23207;DHT22;11773;52.570;13.052;2022-12-11T06:16:43;1.10;99.90
23207;DHT22;11773;52.570;13.052;2022-12-11T06:19:15;1.20;99.90
23207;DHT22;11773;52.570;13.052;2022-12-11T06:21:45;1.10;99.90
23207;DHT22;11773;52.570;13.052;2022-12-11T06:24:15;1.00;99.90
23207;DHT22;11773;52.570;13.052;2022-12-11T06:26:45;1.20;99.90
23207;DHT22;11773;52.570;13.052;2022-12-11T06:29:14;1.20;99.90
23207;DHT22;11773;52.570;13.052;2022-12-11T06:31:44;1.30;99.90
23207;DHT22;11773;52.570;13.052;2022-12-11T06:34:14;1.10;99.90
23207;DHT22;11773;52.570;13.052;2022-12-11T06:36:43;1.10;99.90
23207;DHT22;11773;52.570;13.052;2022-12-11T06:39:13;1.30;99.90
23207;DHT22;11773;52.570;13.052;2022-12-11T06:41:42;1.30;99.90
23207;DHT22;11773;52.570;13.052;2022-12-11T06:44:12;1.00;99.90
23207;DHT22;11773;52.570;13.052;2022-12-11T06:46:41;1.00;99.90
23207;DHT22;11773;52.570;13.052;2022-12-11T06:49:11;1.10;99.90
23207;DHT22;11773;52.570;13.052;2022-12-11T06:51:40;1.10;99.90
23207;DHT22;11773;52.570;13.052;2022-12-11T06:54:09;1.00;99.90
23207;DHT22;11773;52.570;13.052;2022-12-11T06:56:39;1.10;99.90
23207;DHT22;11773;52.570;13.052;2022-12-11T06:59:10;1.00;99.90
23207;DHT22;11773;52.570;13.052;2022-12-11T07:01:40;1.10;99.90
23207;DHT22;11773;52.570;13.052;2022-12-11T07:04:09;1.20;99.90
23207;DHT22;11773;52.570;13.052;2022-12-11T07:06:39;1.00;99.90
23207;DHT22;11773;52.570;13.052;2022-12-11T07:09:08;1.20;99.90
23207;DHT22;11773;52.570;13.052;2022-12-11T07:11:38;1.00;99.90
23207;DHT22;11773;52.570;13.052;2022-12-11T07:14:08;0.80;99.90
23207;DHT22;11773;52.570;13.052;2022-12-11T07:16:37;0.70;99.90
23207;DHT22;11773;52.570;13.052;2022-12-11T07:19:07;1.00;99.90
23207;DHT22;11773;52.570;13.052;2022-12-11T07:21:36;1.00;99.90
23207;DHT22;11773;52.570;13.052;2022-12-11T07:24:06;1.10;99.90
23207;DHT22;11773;52.570;13.052;2022-12-11T07:26:36;1.30;99.90
23207;DHT22;11773;52.570;13.052;2022-12-11T07:29:05;1.20;99.90
23207;DHT22;11773;52.570;13.052;2022-12-11T07:31:35;1.30;99.90
23207;DHT22;11773;52.570;13.052;2022-12-11T07:34:05;0.70;99.90
23207;DHT22;11773;52.570;13.052;2022-12-11T07:36:35;0.60;99.90
23207;DHT22;11773;52.570;13.052;2022-12-11T07:39:04;0.80;99.90
23207;DHT22;11773;52.570;13.052;2022-12-11T07:41:35;0.90;99.90
23207;DHT22;11773;52.570;13.052;2022-12-11T07:44:05;0.70;99.90
23207;DHT22;11773;52.570;13.052;2022-12-11T07:46:34;0.60;99.90
23207;DHT22;11773;52.570;13.052;2022-12-11T07:49:05;0.90;99.90
23207;DHT22;11773;52.570;13.052;2022-12-11T07:51:36;0.90;99.90
23207;DHT22;11773;52.570;13.052;2022-12-11T07:54:09;1.10;99.90
23207;DHT22;11773;52.570;13.052;2022-12-11T07:56:45;0.80;99.90
23207;DHT22;11773;52.570;13.052;2022-12-11T07:59:16;0.70;99.90
23207;DHT22;11773;52.570;13.052;2022-12-11T08:01:47;0.30;99.90
23207;DHT22;11773;52.570;13.052;2022-12-11T08:04:17;0.50;99.90
23207;DHT22;11773;52.570;13.052;2022-12-11T08:06:46;0.50;99.90
23207;DHT22;11773;52.570;13.052;2022-12-11T08:09:16;0.80;99.90
23207;DHT22;11773;52.570;13.052;2022-12-11T08:11:49;0.80;99.90
23207;DHT22;11773;52.570;13.052;2022-12-11T08:14:19;0.70;99.90
23207;DHT22;11773;52.570;13.052;2022-12-11T08:16:49;0.80;99.90
23207;DHT22;11773;52.570;13.052;2022-12-11T08:19:18;0.80;99.90
23207;DHT22;11773;52.570;13.052;2022-12-11T08:21:48;0.80;99.90
23207;DHT22;11773;52.570;13.052;2022-12-11T08:24:17;0.90;99.90
23207;DHT22;11773;52.570;13.052;2022-12-11T08:26:47;1.00;99.90
23207;DHT22;11773;52.570;13.052;2022-12-11T08:29:17;1.00;99.90
23207;DHT22;11773;52.570;13.052;2022-12-11T08:31:46;1.00;99.90
23207;DHT22;11773;52.570;13.052;2022-12-11T08:34:16;1.00;99.90
23207;DHT22;11773;52.570;13.052;2022-12-11T08:36:46;1.10;99.90
23207;DHT22;11773;52.570;13.052;2022-12-11T08:39:16;1.10;99.90
23207;DHT22;11773;52.570;13.052;2022-12-11T08:41:46;0.80;99.90
23207;DHT22;11773;52.570;13.052;2022-12-11T08:44:15;0.90;99.90
23207;DHT22;11773;52.570;13.052;2022-12-11T08:46:45;0.70;99.90
23207;DHT22;11773;52.570;13.052;2022-12-11T08:49:14;0.90;99.90
23207;DHT22;11773;52.570;13.052;2022-12-11T08:51:44;0.80;99.90
23207;DHT22;11773;52.570;13.052;2022-12-11T08:54:13;0.90;99.90
23207;DHT22;11773;52.570;13.052;2022-12-11T08:56:43;0.90;99.90
23207;DHT22;11773;52.570;13.052;2022-12-11T08:59:12;0.80;99.90
23207;DHT22;11773;52.570;13.052;2022-12-11T09:01:42;0.60;99.90
23207;DHT22;11773;52.570;13.052;2022-12-11T09:04:11;0.50;99.90
23207;DHT22;11773;52.570;13.052;2022-12-11T09:06:41;0.50;99.90
23207;DHT22;11773;52.570;13.052;2022-12-11T09:09:10;0.50;99.90
23207;DHT22;11773;52.570;13.052;2022-12-11T09:11:40;0.60;99.90
23207;DHT22;11773;52.570;13.052;2022-12-11T09:14:10;0.40;99.90
23207;DHT22;11773;52.570;13.052;2022-12-11T09:16:39;0.60;99.90
23207;DHT22;11773;52.570;13.052;2022-12-11T09:19:11;0.70;99.90
23207;DHT22;11773;52.570;13.052;2022-12-11T09:21:43;0.60;99.90
23207;DHT22;11773;52.570;13.052;2022-12-11T09:24:13;0.90;99.90
23207;DHT22;11773;52.570;13.052;2022-12-11T09:26:43;0.90;99.90
23207;DHT22;11773;52.570;13.052;2022-12-11T09:29:13;1.00;99.90
23207;DHT22;11773;52.570;13.052;2022-12-11T09:31:43;1.00;99.90
23207;DHT22;11773;52.570;13.052;2022-12-11T09:34:13;0.60;99.90
23207;DHT22;11773;52.570;13.052;2022-12-11T09:36:43;0.30;99.90
23207;DHT22;11773;52.570;13.052;2022-12-11T09:39:14;0.90;99.90
23207;DHT22;11773;52.570;13.052;2022-12-11T09:41:54;1.10;99.90
23207;DHT22;11773;52.570;13.052;2022-12-11T09:47:19;1.20;99.90
23207;DHT22;11773;52.570;13.052;2022-12-11T09:50:35;0.90;99.90
23207;DHT22;11773;52.570;13.052;2022-12-11T09:52:53;1.00;99.90
23207;DHT22;11773;52.570;13.052;2022-12-11T10:05:29;1.10;99.90
23207;DHT22;11773;52.570;13.052;2022-12-11T10:08:10;1.00;99.90
23207;DHT22;11773;52.570;13.052;2022-12-11T10:10:58;1.20;99.90
23207;DHT22;11773;52.570;13.052;2022-12-11T10:13:56;1.30;99.90
23207;DHT22;11773;52.570;13.052;2022-12-11T10:16:55;1.30;99.90
23207;DHT22;11773;52.570;13.052;2022-12-11T10:19:26;1.20;99.90
23207;DHT22;11773;52.570;13.052;2022-12-11T10:21:59;1.40;99.90
23207;DHT22;11773;52.570;13.052;2022-12-11T10:24:33;1.60;99.90
23207;DHT22;11773;52.570;13.052;2022-12-11T10:27:19;1.60;99.90
23207;DHT22;11773;52.570;13.052;2022-12-11T10:30:11;1.60;99.90
23207;DHT22;11773;52.570;13.052;2022-12-11T10:35:38;1.50;99.90
23207;DHT22;11773;52.570;13.052;2022-12-11T10:38:22;1.50;99.90
23207;DHT22;11773;52.570;13.052;2022-12-11T10:41:18;1.20;99.90
23207;DHT22;11773;52.570;13.052;2022-12-11T10:43:52;1.50;99.90
23207;DHT22;11773;52.570;13.052;2022-12-11T10:46:27;1.50;99.90
23207;DHT22;11773;52.570;13.052;2022-12-11T10:49:00;1.60;99.90
23207;DHT22;11773;52.570;13.052;2022-12-11T10:54:07;1.60;99.90
23207;DHT22;11773;52.570;13.052;2022-12-11T10:56:38;1.50;99.90
23207;DHT22;11773;52.570;13.052;2022-12-11T10:59:12;1.30;99.90
23207;DHT22;11773;52.570;13.052;2022-12-11T11:01:45;1.40;99.90
23207;DHT22;11773;52.570;13.052;2022-12-11T11:04:20;1.50;99.90
23207;DHT22;11773;52.570;13.052;2022-12-11T11:07:19;1.60;99.90
23207;DHT22;11773;52.570;13.052;2022-12-11T11:12:47;1.40;99.90
23207;DHT22;11773;52.570;13.052;2022-12-11T11:15:24;1.60;99.90
23207;DHT22;11773;52.570;13.052;2022-12-11T11:17:59;1.50;99.90
23207;DHT22;11773;52.570;13.052;2022-12-11T11:20:33;1.50;99.90
23207;DHT22;11773;52.570;13.052;2022-12-11T11:23:12;1.70;99.90
23207;DHT22;11773;52.570;13.052;2022-12-11T11:25:37;1.70;99.90
23207;DHT22;11773;52.570;13.052;2022-12-11T11:28:14;1.80;99.90
23207;DHT22;11773;52.570;13.052;2022-12-11T11:30:41;1.90;99.90
23207;DHT22;11773;52.570;13.052;2022-12-11T11:33:19;1.90;99.90
23207;DHT22;11773;52.570;13.052;2022-12-11T11:35:58;1.90;99.90
23207;DHT22;11773;52.570;13.052;2022-12-11T11:38:35;1.80;99.90
23207;DHT22;11773;52.570;13.052;2022-12-11T11:44:09;1.70;99.90
23207;DHT22;11773;52.570;13.052;2022-12-11T11:46:52;1.80;99.90
23207;DHT22;11773;52.570;13.052;2022-12-11T11:49:46;1.80;99.90
23207;DHT22;11773;52.570;13.052;2022-12-11T11:52:41;1.90;99.90
23207;DHT22;11773;52.570;13.052;2022-12-11T11:55:24;1.80;99.90
23207;DHT22;11773;52.570;13.052;2022-12-11T11:57:55;1.90;99.90
23207;DHT22;11773;52.570;13.052;2022-12-11T12:00:28;2.00;99.90
23207;DHT22;11773;52.570;13.052;2022-12-11T12:03:08;1.80;99.90
23207;DHT22;11773;52.570;13.052;2022-12-11T12:09:05;1.90;99.90
23207;DHT22;11773;52.570;13.052;2022-12-11T12:11:46;2.00;99.90
23207;DHT22;11773;52.570;13.052;2022-12-11T12:14:30;2.00;99.90
23207;DHT22;11773;52.570;13.052;2022-12-11T12:17:24;2.00;99.90
23207;DHT22;11773;52.570;13.052;2022-12-11T12:22:52;2.00;99.90
23207;DHT22;11773;52.570;13.052;2022-12-11T12:25:54;1.80;99.90
23207;DHT22;11773;52.570;13.052;2022-12-11T12:34:21;1.90;99.90
23207;DHT22;11773;52.570;13.052;2022-12-11T12:40:16;1.90;99.90
23207;DHT22;11773;52.570;13.052;2022-12-11T12:45:39;1.70;99.90
23207;DHT22;11773;52.570;13.052;2022-12-11T12:48:11;1.80;99.90
23207;DHT22;11773;52.570;13.052;2022-12-11T12:50:43;1.80;99.90
23207;DHT22;11773;52.570;13.052;2022-12-11T12:53:18;1.70;99.90
23207;DHT22;11773;52.570;13.052;2022-12-11T12:55:50;1.70;99.90
23207;DHT22;11773;52.570;13.052;2022-12-11T12:58:41;1.80;99.90
23207;DHT22;11773;52.570;13.052;2022-12-11T13:01:18;1.80;99.90
23207;DHT22;11773;52.570;13.052;2022-12-11T13:04:06;1.90;99.90
23207;DHT22;11773;52.570;13.052;2022-12-11T13:06:42;1.90;99.90
23207;DHT22;11773;52.570;13.052;2022-12-11T13:09:22;2.00;99.90
23207;DHT22;11773;52.570;13.052;2022-12-11T13:11:55;2.10;99.90
23207;DHT22;11773;52.570;13.052;2022-12-11T13:14:27;1.80;99.90
23207;DHT22;11773;52.570;13.052;2022-12-11T13:20:19;1.50;99.90
23207;DHT22;11773;52.570;13.052;2022-12-11T13:22:52;1.70;99.90
23207;DHT22;11773;52.570;13.052;2022-12-11T13:25:28;1.80;99.90
23207;DHT22;11773;52.570;13.052;2022-12-11T13:28:06;1.90;99.90
23207;DHT22;11773;52.570;13.052;2022-12-11T13:30:37;1.90;99.90
23207;DHT22;11773;52.570;13.052;2022-12-11T13:33:14;1.90;99.90
23207;DHT22;11773;52.570;13.052;2022-12-11T13:35:46;2.00;99.90
23207;DHT22;11773;52.570;13.052;2022-12-11T13:38:19;2.00;99.90
23207;DHT22;11773;52.570;13.052;2022-12-11T13:40:53;2.00;99.90
23207;DHT22;11773;52.570;13.052;2022-12-11T13:43:27;2.00;99.90
23207;DHT22;11773;52.570;13.052;2022-12-11T13:46:00;1.70;99.90
23207;DHT22;11773;52.570;13.052;2022-12-11T13:48:46;1.80;99.90
23207;DHT22;11773;52.570;13.052;2022-12-11T13:51:22;1.90;99.90
23207;DHT22;11773;52.570;13.052;2022-12-11T13:54:12;1.80;99.90
23207;DHT22;11773;52.570;13.052;2022-12-11T13:56:59;2.00;99.90
23207;DHT22;11773;52.570;13.052;2022-12-11T13:59:35;2.10;99.90
23207;DHT22;11773;52.570;13.052;2022-12-11T14:02:18;2.10;99.90
23207;DHT22;11773;52.570;13.052;2022-12-11T14:04:59;2.10;99.90
23207;DHT22;11773;52.570;13.052;2022-12-11T14:07:29;2.10;99.90
23207;DHT22;11773;52.570;13.052;2022-12-11T14:10:12;2.10;99.90
23207;DHT22;11773;52.570;13.052;2022-12-11T14:12:36;2.10;99.90
23207;DHT22;11773;52.570;13.052;2022-12-11T14:15:10;2.10;99.90
23207;DHT22;11773;52.570;13.052;2022-12-11T14:17:41;2.00;99.90
23207;DHT22;11773;52.570;13.052;2022-12-11T14:20:18;2.00;99.90
23207;DHT22;11773;52.570;13.052;2022-12-11T14:23:18;2.10;99.90
23207;DHT22;11773;52.570;13.052;2022-12-11T14:26:15;2.00;99.90
23207;DHT22;11773;52.570;13.052;2022-12-11T14:28:46;2.10;99.90
23207;DHT22;11773;52.570;13.052;2022-12-11T14:31:21;2.10;99.90
23207;DHT22;11773;52.570;13.052;2022-12-11T14:34:26;2.20;99.90
23207;DHT22;11773;52.570;13.052;2022-12-11T14:37:02;2.00;99.90
23207;DHT22;11773;52.570;13.052;2022-12-11T14:39:46;2.10;99.90
23207;DHT22;11773;52.570;13.052;2022-12-11T14:42:29;2.20;99.90
23207;DHT22;11773;52.570;13.052;2022-12-11T14:45:12;2.10;99.90
23207;DHT22;11773;52.570;13.052;2022-12-11T14:47:46;2.10;99.90
23207;DHT22;11773;52.570;13.052;2022-12-11T14:50:22;2.10;99.90
23207;DHT22;11773;52.570;13.052;2022-12-11T14:53:07;1.90;99.90
23207;DHT22;11773;52.570;13.052;2022-12-11T14:55:38;2.10;99.90
23207;DHT22;11773;52.570;13.052;2022-12-11T14:58:14;2.10;99.90
23207;DHT22;11773;52.570;13.052;2022-12-11T15:01:19;2.00;99.90
23207;DHT22;11773;52.570;13.052;2022-12-11T15:03:39;2.00;99.90
23207;DHT22;11773;52.570;13.052;2022-12-11T15:06:33;2.00;99.90
23207;DHT22;11773;52.570;13.052;2022-12-11T15:09:35;2.10;99.90
23207;DHT22;11773;52.570;13.052;2022-12-11T15:12:09;2.10;99.90
23207;DHT22;11773;52.570;13.052;2022-12-11T15:14:49;2.20;99.90
23207;DHT22;11773;52.570;13.052;2022-12-11T15:17:22;2.20;99.90
23207;DHT22;11773;52.570;13.052;2022-12-11T15:19:55;2.20;99.90
23207;DHT22;11773;52.570;13.052;2022-12-11T15:22:37;2.10;99.90
23207;DHT22;11773;52.570;13.052;2022-12-11T15:25:22;2.20;99.90
23207;DHT22;11773;52.570;13.052;2022-12-11T15:27:55;2.20;99.90
23207;DHT22;11773;52.570;13.052;2022-12-11T15:30:28;2.20;99.90
23207;DHT22;11773;52.570;13.052;2022-12-11T15:35:52;2.30;99.90
23207;DHT22;11773;52.570;13.052;2022-12-11T15:38:32;2.30;99.90
23207;DHT22;11773;52.570;13.052;2022-12-11T15:41:15;2.20;99.90
23207;DHT22;11773;52.570;13.052;2022-12-11T15:43:47;2.30;99.90
23207;DHT22;11773;52.570;13.052;2022-12-11T15:46:19;2.30;99.90
23207;DHT22;11773;52.570;13.052;2022-12-11T15:48:49;2.30;99.90
23207;DHT22;11773;52.570;13.052;2022-12-11T15:51:19;2.30;99.90
23207;DHT22;11773;52.570;13.052;2022-12-11T15:53:49;2.30;99.90
23207;DHT22;11773;52.570;13.052;2022-12-11T15:56:19;2.40;99.90
23207;DHT22;11773;52.570;13.052;2022-12-11T15:58:48;2.20;99.90
23207;DHT22;11773;52.570;13.052;2022-12-11T16:01:18;2.20;99.90
23207;DHT22;11773;52.570;13.052;2022-12-11T16:03:47;2.20;99.90
23207;DHT22;11773;52.570;13.052;2022-12-11T16:06:17;2.20;99.90
23207;DHT22;11773;52.570;13.052;2022-12-11T16:08:47;2.20;99.90
23207;DHT22;11773;52.570;13.052;2022-12-11T16:11:16;2.10;99.90
23207;DHT22;11773;52.570;13.052;2022-12-11T16:13:46;2.20;99.90
23207;DHT22;11773;52.570;13.052;2022-12-11T16:16:15;2.30;99.90
23207;DHT22;11773;52.570;13.052;2022-12-11T16:18:45;2.20;99.90
23207;DHT22;11773;52.570;13.052;2022-12-11T16:21:14;2.30;99.90
23207;DHT22;11773;52.570;13.052;2022-12-11T16:23:45;2.20;99.90
23207;DHT22;11773;52.570;13.052;2022-12-11T16:26:15;2.10;99.90
23207;DHT22;11773;52.570;13.052;2022-12-11T16:28:45;2.10;99.90
23207;DHT22;11773;52.570;13.052;2022-12-11T16:31:14;2.10;99.90
23207;DHT22;11773;52.570;13.052;2022-12-11T16:33:44;2.10;99.90
23207;DHT22;11773;52.570;13.052;2022-12-11T16:36:16;2.20;99.90
23207;DHT22;11773;52.570;13.052;2022-12-11T16:38:48;2.10;99.90
23207;DHT22;11773;52.570;13.052;2022-12-11T16:41:20;2.10;99.90
23207;DHT22;11773;52.570;13.052;2022-12-11T16:43:50;2.10;99.90
23207;DHT22;11773;52.570;13.052;2022-12-11T16:46:22;2.20;99.90
23207;DHT22;11773;52.570;13.052;2022-12-11T16:48:52;2.20;99.90
23207;DHT22;11773;52.570;13.052;2022-12-11T16:51:22;2.20;99.90
23207;DHT22;11773;52.570;13.052;2022-12-11T16:53:51;2.20;99.90
23207;DHT22;11773;52.570;13.052;2022-12-11T16:56:20;2.20;99.90
23207;DHT22;11773;52.570;13.052;2022-12-11T16:58:50;2.30;99.90
23207;DHT22;11773;52.570;13.052;2022-12-11T17:01:20;2.30;99.90
23207;DHT22;11773;52.570;13.052;2022-12-11T17:03:49;2.20;99.90
23207;DHT22;11773;52.570;13.052;2022-12-11T17:06:19;2.30;99.90
23207;DHT22;11773;52.570;13.052;2022-12-11T17:08:49;2.40;99.90
23207;DHT22;11773;52.570;13.052;2022-12-11T17:11:20;2.30;99.90